TimeCST,TemperatureF,Dew PointF,Humidity,Sea Level PressureIn,VisibilityMPH,Wind Direction,Wind SpeedMPH,Gust SpeedMPH,PrecipitationIn,Events,Conditions,WindDirDegrees,DateUTC
12:00 AM,26.6,26.6,100,30.16,0.8,Calm,Calm,-,N/A,,Clear,0,2012-11-21 06:00:00
12:01 AM,26.6,26.6,100,30.16,1.0,Calm,Calm,-,N/A,,Clear,0,2012-11-21 06:01:00
12:02 AM,26.6,26.6,100,30.16,1.2,Calm,Calm,-,N/A,,Clear,0,2012-11-21 06:02:00
12:04 AM,26.6,24.8,93,30.16,1.5,Calm,Calm,-,N/A,,Clear,0,2012-11-21 06:04:00
12:05 AM,26.6,24.8,93,30.16,1.2,Calm,Calm,-,N/A,,Clear,0,2012-11-21 06:05:00
12:06 AM,26.6,24.8,93,30.16,1.0,Calm,Calm,-,N/A,,Clear,0,2012-11-21 06:06:00
12:07 AM,26.6,24.8,93,30.16,0.8,Calm,Calm,-,N/A,,Clear,0,2012-11-21 06:07:00
12:08 AM,26.6,24.8,93,30.16,0.5,Calm,Calm,-,N/A,Fog,Light Freezing Fog,0,2012-11-21 06:08:00
12:13 AM,24.8,24.8,100,30.16,0.2,Calm,Calm,-,N/A,Fog,Light Freezing Fog,0,2012-11-21 06:13:00
12:16 AM,24.8,24.8,100,30.16,0.5,Calm,Calm,-,N/A,Fog,Light Freezing Fog,0,2012-11-21 06:16:00
12:20 AM,26.6,24.8,93,30.16,0.8,Calm,Calm,-,N/A,,Clear,0,2012-11-21 06:20:00
12:22 AM,26.6,24.8,93,30.16,1.0,Calm,Calm,-,N/A,,Clear,0,2012-11-21 06:22:00
12:23 AM,26.6,24.8,93,30.16,1.2,Calm,Calm,-,N/A,,Clear,0,2012-11-21 06:23:00
12:24 AM,26.6,24.8,93,30.16,1.5,Calm,Calm,-,N/A,,Clear,0,2012-11-21 06:24:00
12:25 AM,24.8,24.8,100,30.16,1.8,Calm,Calm,-,N/A,,Clear,0,2012-11-21 06:25:00
12:26 AM,24.8,24.8,100,30.16,2.0,Calm,Calm,-,N/A,,Clear,0,2012-11-21 06:26:00
12:28 AM,24.8,24.8,100,30.16,1.8,ESE,3.5,-,N/A,,Clear,120,2012-11-21 06:28:00
12:29 AM,24.8,24.8,100,30.16,1.0,SE,3.5,-,N/A,,Clear,130,2012-11-21 06:29:00
12:30 AM,24.8,24.8,100,30.16,0.8,SE,4.6,-,N/A,,Clear,140,2012-11-21 06:30:00
12:31 AM,24.8,24.8,100,30.16,0.5,SE,4.6,-,N/A,Fog,Light Freezing Fog,140,2012-11-21 06:31:00
12:37 AM,26.6,24.8,93,30.16,0.2,SE,5.8,-,N/A,Fog,Light Freezing Fog,140,2012-11-21 06:37:00
12:38 AM,26.6,26.6,100,30.16,0.5,SSE,5.8,-,N/A,Fog,Light Freezing Fog,150,2012-11-21 06:38:00
12:42 AM,28.4,28.4,100,30.15,0.8,SSE,5.8,-,N/A,,Clear,160,2012-11-21 06:42:00
12:44 AM,28.4,28.4,100,30.15,1.0,SSE,5.8,-,N/A,,Clear,160,2012-11-21 06:44:00
12:50 AM,30.2,30.2,100,30.14,0.8,SSE,5.8,-,N/A,,Clear,150,2012-11-21 06:50:00
12:55 AM,31.3,30.9,99,30.14,0.8,SSE,4.6,-,N/A,,Clear,150,2012-11-21 06:55:00
12:57 AM,32.0,30.2,93,30.14,1.0,SSE,4.6,-,N/A,,Clear,150,2012-11-21 06:57:00
12:59 AM,32.0,30.2,93,30.14,1.2,SSE,4.6,-,N/A,,Clear,150,2012-11-21 06:59:00
1:01 AM,32.0,30.2,93,30.14,1.5,SSE,5.8,-,N/A,,Clear,150,2012-11-21 07:01:00
1:02 AM,32.0,30.2,93,30.14,1.8,SSE,5.8,-,N/A,,Clear,150,2012-11-21 07:02:00
1:03 AM,32.0,30.2,93,30.14,2.0,SSE,5.8,-,N/A,,Clear,160,2012-11-21 07:03:00
1:05 AM,32.0,30.2,93,30.14,2.5,SSE,4.6,-,N/A,,Clear,160,2012-11-21 07:05:00
1:07 AM,32.0,30.2,93,30.14,3.0,SSE,4.6,-,N/A,,Clear,160,2012-11-21 07:07:00
1:55 AM,31.8,31.5,99,30.14,6.0,SE,6.9,-,N/A,,Clear,140,2012-11-21 07:55:00
2:55 AM,29.5,28.8,97,30.14,6.0,SE,3.5,-,N/A,,Clear,130,2012-11-21 08:55:00
3:11 AM,24.8,24.8,100,30.14,2.5,ESE,5.8,-,N/A,,Clear,120,2012-11-21 09:11:00
3:12 AM,24.8,24.8,100,30.14,1.8,ESE,5.8,-,N/A,,Clear,120,2012-11-21 09:12:00
3:13 AM,24.8,24.8,100,30.14,1.2,ESE,5.8,-,N/A,,Clear,120,2012-11-21 09:13:00
3:15 AM,24.8,24.8,100,30.14,1.0,SE,5.8,-,N/A,,Clear,130,2012-11-21 09:15:00
3:22 AM,24.8,23.0,93,30.14,1.2,SE,5.8,-,N/A,,Clear,130,2012-11-21 09:22:00
3:23 AM,24.8,23.0,93,30.14,1.5,SE,5.8,-,N/A,,Clear,130,2012-11-21 09:23:00
3:24 AM,24.8,23.0,93,30.15,1.8,SE,5.8,-,N/A,,Clear,130,2012-11-21 09:24:00
3:26 AM,24.8,23.0,93,30.15,2.0,SE,5.8,-,N/A,,Clear,130,2012-11-21 09:26:00
3:29 AM,24.8,23.0,93,30.15,2.5,SE,4.6,-,N/A,,Clear,130,2012-11-21 09:29:00
3:30 AM,24.8,24.8,100,30.15,3.0,SE,4.6,-,N/A,,Clear,130,2012-11-21 09:30:00
3:55 AM,30.6,30.0,98,30.15,4.0,SE,3.5,-,N/A,,Clear,140,2012-11-21 09:55:00
3:59 AM,28.4,28.4,100,30.15,2.5,SE,3.5,-,N/A,,Clear,130,2012-11-21 09:59:00
4:00 AM,28.4,28.4,100,30.15,1.8,SE,3.5,-,N/A,,Clear,140,2012-11-21 10:00:00
4:01 AM,28.4,26.6,93,30.15,1.5,SE,3.5,-,N/A,,Clear,130,2012-11-21 10:01:00
4:02 AM,28.4,26.6,93,30.15,1.2,SE,4.6,-,N/A,,Clear,130,2012-11-21 10:02:00
4:03 AM,28.4,26.6,93,30.15,1.0,SE,4.6,-,N/A,,Clear,130,2012-11-21 10:03:00
4:04 AM,26.6,26.6,100,30.15,0.8,SE,4.6,-,N/A,,Clear,130,2012-11-21 10:04:00
4:07 AM,26.6,26.6,100,30.15,0.5,ESE,5.8,-,N/A,Fog,Light Freezing Fog,120,2012-11-21 10:07:00
4:08 AM,26.6,26.6,100,30.15,0.8,ESE,5.8,-,N/A,,Clear,120,2012-11-21 10:08:00
4:12 AM,28.4,28.4,100,30.15,1.0,SE,5.8,-,N/A,,Mist,130,2012-11-21 10:12:00
4:13 AM,28.4,28.4,100,30.15,1.2,SE,5.8,-,N/A,,Partly Cloudy,130,2012-11-21 10:13:00
4:14 AM,30.2,28.4,93,30.15,1.5,SE,5.8,-,N/A,,Partly Cloudy,130,2012-11-21 10:14:00
4:15 AM,30.2,30.2,100,30.15,2.0,SE,4.6,-,N/A,,Partly Cloudy,130,2012-11-21 10:15:00
4:20 AM,30.2,30.2,100,30.15,1.8,ESE,4.6,-,N/A,,Scattered Clouds,110,2012-11-21 10:20:00
4:21 AM,30.2,30.2,100,30.16,1.8,ESE,4.6,-,N/A,,Mostly Cloudy,120,2012-11-21 10:21:00
4:22 AM,30.2,30.2,100,30.16,1.5,ESE,4.6,-,N/A,,Mostly Cloudy,120,2012-11-21 10:22:00
4:23 AM,30.2,30.2,100,30.16,1.2,ESE,4.6,-,N/A,,Mostly Cloudy,120,2012-11-21 10:23:00
4:25 AM,30.2,30.2,100,30.16,1.0,SE,4.6,-,N/A,,Mist,130,2012-11-21 10:25:00
4:26 AM,30.2,30.2,100,30.16,0.8,SE,3.5,-,N/A,,Mist,130,2012-11-21 10:26:00
4:29 AM,30.2,30.2,100,30.16,0.5,SE,3.5,-,N/A,Fog,Light Freezing Fog,130,2012-11-21 10:29:00
4:34 AM,30.2,30.2,100,30.16,0.2,ESE,4.6,-,N/A,Fog,Light Freezing Fog,120,2012-11-21 10:34:00
4:41 AM,30.2,30.2,100,30.16,0.2,Calm,Calm,-,N/A,Fog,Light Freezing Drizzle,0,2012-11-21 10:41:00
4:55 AM,31.3,30.7,98,30.16,0.2,ESE,3.5,-,0.00,Fog,Light Freezing Drizzle,110,2012-11-21 10:55:00
4:57 AM,32.0,30.2,93,30.16,0.2,East,3.5,-,N/A,Fog,Light Freezing Fog,100,2012-11-21 10:57:00
5:55 AM,31.8,31.5,99,30.14,0.2,East,5.8,-,0.00,Fog,Light Freezing Drizzle,80,2012-11-21 11:55:00
6:03 AM,32.0,32.0,100,30.14,0.5,East,3.5,-,N/A,Fog,Light Freezing Drizzle,90,2012-11-21 12:03:00
6:17 AM,32.0,32.0,100,30.10,0.5,East,3.5,-,N/A,Fog,Fog,80,2012-11-21 12:17:00
6:55 AM,35.6,35.6,100,30.13,0.5,SSE,3.5,-,N/A,Fog,Fog,150,2012-11-21 12:55:00
7:18 AM,37.4,35.6,93,30.11,1.2,Calm,Calm,-,N/A,,Overcast,0,2012-11-21 13:18:00
7:33 AM,37.4,37.4,100,30.11,2.5,Calm,Calm,-,N/A,,Mostly Cloudy,0,2012-11-21 13:33:00
7:55 AM,39.2,37.4,93,30.12,5.0,SSE,4.6,-,N/A,,Mostly Cloudy,160,2012-11-21 13:55:00
8:55 AM,41.0,41.0,100,30.12,7.0,SSE,4.6,-,N/A,,Scattered Clouds,160,2012-11-21 14:55:00
9:55 AM,46.4,46.4,100,30.10,10.0,Variable,6.9,-,N/A,,Clear,0,2012-11-21 15:55:00
10:55 AM,54.5,41.9,62,30.08,10.0,Variable,4.6,-,N/A,,Clear,0,2012-11-21 16:55:00
11:55 AM,57.2,41.0,55,30.04,10.0,South,9.2,-,N/A,,Scattered Clouds,190,2012-11-21 17:55:00
12:55 PM,59.0,42.8,55,30.01,10.0,South,6.9,16.1,N/A,,Mostly Cloudy,180,2012-11-21 18:55:00
1:55 PM,61.3,42.1,49,29.98,10.0,Variable,6.9,-,N/A,,Clear,0,2012-11-21 19:55:00
2:55 PM,61.3,42.3,50,29.97,10.0,SSW,8.1,-,N/A,,Clear,200,2012-11-21 20:55:00
3:55 PM,59.5,42.8,54,29.97,10.0,South,5.8,-,N/A,,Clear,190,2012-11-21 21:55:00
4:55 PM,56.7,42.8,60,29.97,10.0,South,4.6,-,N/A,,Clear,170,2012-11-21 22:55:00
5:55 PM,54.1,43.0,66,29.96,10.0,South,8.1,-,N/A,,Clear,170,2012-11-21 23:55:00
6:55 PM,52.5,43.2,70,29.96,10.0,SSE,8.1,-,N/A,,Clear,160,2012-11-22 00:55:00
7:55 PM,52.5,43.9,72,29.95,10.0,South,12.7,18.4,N/A,,Clear,170,2012-11-22 01:55:00
8:55 PM,53.1,43.3,70,29.94,10.0,South,8.1,-,N/A,,Clear,190,2012-11-22 02:55:00
9:55 PM,52.5,42.8,70,29.94,10.0,South,9.2,-,N/A,,Clear,180,2012-11-22 03:55:00
10:55 PM,52.5,42.4,69,29.93,10.0,Variable,3.5,-,N/A,,Clear,0,2012-11-22 04:55:00
11:55 PM,51.4,42.1,70,29.91,10.0,South,8.1,-,N/A,,Clear,190,2012-11-22 05:55:00